sensor_id;sensor_type;location;lat;lon;timestamp;P1;durP1;ratioP1;P2;durP2;ratioP2
72194;SDS011;60095;50.180;9.032;2023-04-25T00:01:50;9.95;;;6.95;;
72194;SDS011;60095;50.180;9.032;2023-04-25T00:04:17;9.98;;;8.60;;
72194;SDS011;60095;50.180;9.032;2023-04-25T00:06:44;8.55;;;7.57;;
72194;SDS011;60095;50.180;9.032;2023-04-25T00:09:10;12.35;;;8.23;;
72194;SDS011;60095;50.180;9.032;2023-04-25T00:11:38;7.63;;;6.95;;
72194;SDS011;60095;50.180;9.032;2023-04-25T00:14:05;11.30;;;8.52;;
72194;SDS011;60095;50.180;9.032;2023-04-25T00:16:31;10.77;;;8.68;;
72194;SDS011;60095;50.180;9.032;2023-04-25T00:18:59;16.83;;;7.88;;
72194;SDS011;60095;50.180;9.032;2023-04-25T00:21:28;10.45;;;9.15;;
72194;SDS011;60095;50.180;9.032;2023-04-25T00:23:54;10.98;;;9.50;;
72194;SDS011;60095;50.180;9.032;2023-04-25T00:26:21;9.20;;;8.23;;
72194;SDS011;60095;50.180;9.032;2023-04-25T00:28:49;15.93;;;9.70;;
72194;SDS011;60095;50.180;9.032;2023-04-25T00:31:16;8.65;;;7.85;;
72194;SDS011;60095;50.180;9.032;2023-04-25T00:33:42;10.85;;;9.05;;
72194;SDS011;60095;50.180;9.032;2023-04-25T00:36:09;9.93;;;8.80;;
72194;SDS011;60095;50.180;9.032;2023-04-25T00:38:36;9.45;;;7.90;;
72194;SDS011;60095;50.180;9.032;2023-04-25T00:41:04;13.45;;;8.88;;
72194;SDS011;60095;50.180;9.032;2023-04-25T00:43:30;9.48;;;7.97;;
72194;SDS011;60095;50.180;9.032;2023-04-25T00:45:59;7.95;;;7.20;;
72194;SDS011;60095;50.180;9.032;2023-04-25T00:48:26;7.28;;;6.60;;
72194;SDS011;60095;50.180;9.032;2023-04-25T00:50:53;10.98;;;7.35;;
72194;SDS011;60095;50.180;9.032;2023-04-25T00:53:20;8.90;;;8.05;;
72194;SDS011;60095;50.180;9.032;2023-04-25T00:55:47;12.75;;;9.25;;
72194;SDS011;60095;50.180;9.032;2023-04-25T00:58:15;9.80;;;8.80;;
72194;SDS011;60095;50.180;9.032;2023-04-25T01:00:42;8.50;;;7.70;;
72194;SDS011;60095;50.180;9.032;2023-04-25T01:03:11;10.13;;;7.30;;
72194;SDS011;60095;50.180;9.032;2023-04-25T01:05:38;12.32;;;7.40;;
72194;SDS011;60095;50.180;9.032;2023-04-25T01:08:05;8.60;;;7.63;;
72194;SDS011;60095;50.180;9.032;2023-04-25T01:10:32;5.68;;;4.97;;
72194;SDS011;60095;50.180;9.032;2023-04-25T01:12:58;7.65;;;6.65;;
72194;SDS011;60095;50.180;9.032;2023-04-25T01:15:25;14.10;;;6.30;;
72194;SDS011;60095;50.180;9.032;2023-04-25T01:17:51;11.23;;;7.22;;
72194;SDS011;60095;50.180;9.032;2023-04-25T01:20:22;9.65;;;7.57;;
72194;SDS011;60095;50.180;9.032;2023-04-25T01:22:51;13.65;;;8.73;;
72194;SDS011;60095;50.180;9.032;2023-04-25T01:25:20;11.15;;;6.97;;
72194;SDS011;60095;50.180;9.032;2023-04-25T01:27:46;6.97;;;6.28;;
72194;SDS011;60095;50.180;9.032;2023-04-25T01:30:13;15.60;;;7.13;;
72194;SDS011;60095;50.180;9.032;2023-04-25T01:32:40;10.80;;;8.77;;
72194;SDS011;60095;50.180;9.032;2023-04-25T01:35:08;7.72;;;6.38;;
72194;SDS011;60095;50.180;9.032;2023-04-25T01:37:35;6.75;;;5.93;;
72194;SDS011;60095;50.180;9.032;2023-04-25T01:40:04;9.18;;;7.32;;
72194;SDS011;60095;50.180;9.032;2023-04-25T01:42:31;7.70;;;6.90;;
72194;SDS011;60095;50.180;9.032;2023-04-25T01:44:58;5.50;;;4.75;;
72194;SDS011;60095;50.180;9.032;2023-04-25T01:47:24;8.02;;;6.25;;
72194;SDS011;60095;50.180;9.032;2023-04-25T01:49:51;7.82;;;6.15;;
72194;SDS011;60095;50.180;9.032;2023-04-25T01:52:18;9.10;;;7.70;;
72194;SDS011;60095;50.180;9.032;2023-04-25T01:54:44;11.05;;;7.80;;
72194;SDS011;60095;50.180;9.032;2023-04-25T01:57:12;8.48;;;7.15;;
72194;SDS011;60095;50.180;9.032;2023-04-25T01:59:39;7.35;;;6.45;;
72194;SDS011;60095;50.180;9.032;2023-04-25T02:02:07;6.00;;;5.50;;
72194;SDS011;60095;50.180;9.032;2023-04-25T02:04:33;8.65;;;7.80;;
72194;SDS011;60095;50.180;9.032;2023-04-25T02:07:00;10.88;;;8.45;;
72194;SDS011;60095;50.180;9.032;2023-04-25T02:09:26;9.10;;;6.88;;
72194;SDS011;60095;50.180;9.032;2023-04-25T02:11:53;15.10;;;9.50;;
72194;SDS011;60095;50.180;9.032;2023-04-25T02:14:20;9.60;;;8.15;;
72194;SDS011;60095;50.180;9.032;2023-04-25T02:16:47;8.30;;;6.63;;
72194;SDS011;60095;50.180;9.032;2023-04-25T02:19:14;13.90;;;7.65;;
72194;SDS011;60095;50.180;9.032;2023-04-25T02:21:40;8.35;;;7.45;;
72194;SDS011;60095;50.180;9.032;2023-04-25T02:24:07;11.13;;;8.27;;
72194;SDS011;60095;50.180;9.032;2023-04-25T02:26:34;8.43;;;7.53;;
72194;SDS011;60095;50.180;9.032;2023-04-25T02:29:01;8.63;;;6.60;;
72194;SDS011;60095;50.180;9.032;2023-04-25T02:31:29;9.68;;;8.75;;
72194;SDS011;60095;50.180;9.032;2023-04-25T02:33:56;8.73;;;7.90;;
72194;SDS011;60095;50.180;9.032;2023-04-25T02:36:22;8.20;;;7.00;;
72194;SDS011;60095;50.180;9.032;2023-04-25T02:38:49;7.88;;;7.07;;
72194;SDS011;60095;50.180;9.032;2023-04-25T02:41:15;7.93;;;7.13;;
72194;SDS011;60095;50.180;9.032;2023-04-25T02:43:41;9.20;;;7.20;;
72194;SDS011;60095;50.180;9.032;2023-04-25T02:46:08;8.05;;;7.25;;
72194;SDS011;60095;50.180;9.032;2023-04-25T02:48:36;7.30;;;6.70;;
72194;SDS011;60095;50.180;9.032;2023-04-25T02:51:02;11.07;;;7.47;;
72194;SDS011;60095;50.180;9.032;2023-04-25T02:53:28;9.07;;;8.15;;
72194;SDS011;60095;50.180;9.032;2023-04-25T02:55:55;10.82;;;6.10;;
72194;SDS011;60095;50.180;9.032;2023-04-25T02:58:23;17.88;;;6.75;;
72194;SDS011;60095;50.180;9.032;2023-04-25T03:00:50;8.60;;;7.72;;
72194;SDS011;60095;50.180;9.032;2023-04-25T03:03:16;8.73;;;7.90;;
72194;SDS011;60095;50.180;9.032;2023-04-25T03:05:44;8.50;;;6.85;;
72194;SDS011;60095;50.180;9.032;2023-04-25T03:08:11;11.32;;;7.28;;
72194;SDS011;60095;50.180;9.032;2023-04-25T03:10:38;10.55;;;8.15;;
72194;SDS011;60095;50.180;9.032;2023-04-25T03:13:04;13.02;;;7.38;;
72194;SDS011;60095;50.180;9.032;2023-04-25T03:15:31;11.57;;;9.70;;
72194;SDS011;60095;50.180;9.032;2023-04-25T03:17:58;10.95;;;9.18;;
72194;SDS011;60095;50.180;9.032;2023-04-25T03:20:24;8.63;;;7.78;;
72194;SDS011;60095;50.180;9.032;2023-04-25T03:22:52;10.15;;;8.93;;
72194;SDS011;60095;50.180;9.032;2023-04-25T03:25:19;10.68;;;7.90;;
72194;SDS011;60095;50.180;9.032;2023-04-25T03:27:45;10.18;;;9.13;;
72194;SDS011;60095;50.180;9.032;2023-04-25T03:30:12;10.18;;;9.18;;
72194;SDS011;60095;50.180;9.032;2023-04-25T03:32:39;11.55;;;8.93;;
72194;SDS011;60095;50.180;9.032;2023-04-25T03:35:06;18.25;;;10.55;;
72194;SDS011;60095;50.180;9.032;2023-04-25T03:37:32;11.23;;;8.40;;
72194;SDS011;60095;50.180;9.032;2023-04-25T03:40:01;9.43;;;8.15;;
72194;SDS011;60095;50.180;9.032;2023-04-25T03:42:27;10.90;;;9.85;;
72194;SDS011;60095;50.180;9.032;2023-04-25T03:44:54;9.77;;;7.63;;
72194;SDS011;60095;50.180;9.032;2023-04-25T03:47:21;8.15;;;7.30;;
72194;SDS011;60095;50.180;9.032;2023-04-25T03:49:47;11.18;;;9.38;;
72194;SDS011;60095;50.180;9.032;2023-04-25T03:52:16;8.27;;;7.45;;
72194;SDS011;60095;50.180;9.032;2023-04-25T03:54:43;13.88;;;8.40;;
72194;SDS011;60095;50.180;9.032;2023-04-25T03:57:11;11.55;;;7.30;;
72194;SDS011;60095;50.180;9.032;2023-04-25T03:59:37;10.57;;;9.02;;
72194;SDS011;60095;50.180;9.032;2023-04-25T04:02:04;10.07;;;8.57;;
72194;SDS011;60095;50.180;9.032;2023-04-25T04:04:31;11.40;;;8.75;;
72194;SDS011;60095;50.180;9.032;2023-04-25T04:06:58;9.80;;;8.73;;
72194;SDS011;60095;50.180;9.032;2023-04-25T04:09:24;13.25;;;6.22;;
72194;SDS011;60095;50.180;9.032;2023-04-25T04:11:52;10.38;;;9.38;;
72194;SDS011;60095;50.180;9.032;2023-04-25T04:14:20;11.77;;;8.95;;
72194;SDS011;60095;50.180;9.032;2023-04-25T04:16:46;14.10;;;9.80;;
72194;SDS011;60095;50.180;9.032;2023-04-25T04:19:14;14.68;;;7.95;;
72194;SDS011;60095;50.180;9.032;2023-04-25T04:21:40;10.43;;;8.93;;
72194;SDS011;60095;50.180;9.032;2023-04-25T04:24:07;9.73;;;8.73;;
72194;SDS011;60095;50.180;9.032;2023-04-25T04:26:33;11.60;;;8.63;;
72194;SDS011;60095;50.180;9.032;2023-04-25T04:29:02;9.55;;;7.82;;
72194;SDS011;60095;50.180;9.032;2023-04-25T04:31:30;12.25;;;9.10;;
72194;SDS011;60095;50.180;9.032;2023-04-25T04:33:57;10.18;;;7.60;;
72194;SDS011;60095;50.180;9.032;2023-04-25T04:36:24;11.38;;;8.88;;
72194;SDS011;60095;50.180;9.032;2023-04-25T04:38:51;12.68;;;8.52;;
72194;SDS011;60095;50.180;9.032;2023-04-25T04:41:18;8.52;;;7.72;;
72194;SDS011;60095;50.180;9.032;2023-04-25T04:43:45;10.98;;;9.02;;
72194;SDS011;60095;50.180;9.032;2023-04-25T04:46:12;12.25;;;8.07;;
72194;SDS011;60095;50.180;9.032;2023-04-25T04:48:40;10.90;;;8.45;;
72194;SDS011;60095;50.180;9.032;2023-04-25T04:51:07;13.55;;;7.22;;
72194;SDS011;60095;50.180;9.032;2023-04-25T04:53:34;15.77;;;6.57;;
72194;SDS011;60095;50.180;9.032;2023-04-25T04:56:00;7.20;;;6.05;;
72194;SDS011;60095;50.180;9.032;2023-04-25T04:58:26;13.73;;;6.13;;
72194;SDS011;60095;50.180;9.032;2023-04-25T05:00:54;6.20;;;4.82;;
72194;SDS011;60095;50.180;9.032;2023-04-25T05:03:21;5.95;;;3.22;;
72194;SDS011;60095;50.180;9.032;2023-04-25T05:05:50;17.80;;;5.68;;
72194;SDS011;60095;50.180;9.032;2023-04-25T05:08:16;6.20;;;4.63;;
72194;SDS011;60095;50.180;9.032;2023-04-25T05:10:43;5.18;;;3.45;;
72194;SDS011;60095;50.180;9.032;2023-04-25T05:13:09;6.20;;;5.60;;
72194;SDS011;60095;50.180;9.032;2023-04-25T05:15:36;7.72;;;4.90;;
72194;SDS011;60095;50.180;9.032;2023-04-25T05:18:03;6.18;;;4.72;;
72194;SDS011;60095;50.180;9.032;2023-04-25T05:20:29;10.93;;;4.30;;
72194;SDS011;60095;50.180;9.032;2023-04-25T05:22:57;9.30;;;5.05;;
72194;SDS011;60095;50.180;9.032;2023-04-25T05:25:25;13.43;;;7.10;;
72194;SDS011;60095;50.180;9.032;2023-04-25T05:27:52;5.25;;;3.65;;
72194;SDS011;60095;50.180;9.032;2023-04-25T05:30:19;6.13;;;5.50;;
72194;SDS011;60095;50.180;9.032;2023-04-25T05:32:45;14.85;;;4.15;;
72194;SDS011;60095;50.180;9.032;2023-04-25T05:35:12;5.25;;;4.25;;
72194;SDS011;60095;50.180;9.032;2023-04-25T05:37:38;12.02;;;5.15;;
72194;SDS011;60095;50.180;9.032;2023-04-25T05:40:08;3.47;;;3.17;;
72194;SDS011;60095;50.180;9.032;2023-04-25T05:42:35;8.05;;;5.95;;
72194;SDS011;60095;50.180;9.032;2023-04-25T05:45:02;5.55;;;4.30;;
72194;SDS011;60095;50.180;9.032;2023-04-25T05:47:28;6.53;;;5.20;;
72194;SDS011;60095;50.180;9.032;2023-04-25T05:49:55;6.80;;;5.20;;
72194;SDS011;60095;50.180;9.032;2023-04-25T05:52:22;8.77;;;5.15;;
72194;SDS011;60095;50.180;9.032;2023-04-25T05:54:48;8.95;;;3.83;;
72194;SDS011;60095;50.180;9.032;2023-04-25T05:57:20;4.85;;;4.30;;
72194;SDS011;60095;50.180;9.032;2023-04-25T05:59:47;5.22;;;4.50;;
72194;SDS011;60095;50.180;9.032;2023-04-25T06:02:13;5.70;;;4.00;;
72194;SDS011;60095;50.180;9.032;2023-04-25T06:04:40;3.00;;;2.75;;
72194;SDS011;60095;50.180;9.032;2023-04-25T06:07:06;8.40;;;5.15;;
72194;SDS011;60095;50.180;9.032;2023-04-25T06:09:33;12.68;;;3.28;;
72194;SDS011;60095;50.180;9.032;2023-04-25T06:11:59;4.15;;;2.25;;
72194;SDS011;60095;50.180;9.032;2023-04-25T06:14:28;9.25;;;5.20;;
72194;SDS011;60095;50.180;9.032;2023-04-25T06:16:55;5.47;;;4.40;;
72194;SDS011;60095;50.180;9.032;2023-04-25T06:19:22;9.80;;;5.60;;
72194;SDS011;60095;50.180;9.032;2023-04-25T06:21:48;3.33;;;3.03;;
72194;SDS011;60095;50.180;9.032;2023-04-25T06:24:15;8.98;;;6.18;;
72194;SDS011;60095;50.180;9.032;2023-04-25T06:26:41;7.15;;;5.10;;
72194;SDS011;60095;50.180;9.032;2023-04-25T06:29:08;8.20;;;2.55;;
72194;SDS011;60095;50.180;9.032;2023-04-25T06:31:36;5.18;;;3.92;;
72194;SDS011;60095;50.180;9.032;2023-04-25T06:34:02;9.48;;;4.95;;
72194;SDS011;60095;50.180;9.032;2023-04-25T06:36:29;11.50;;;3.97;;
72194;SDS011;60095;50.180;9.032;2023-04-25T06:38:56;15.63;;;4.22;;
72194;SDS011;60095;50.180;9.032;2023-04-25T06:41:22;5.22;;;4.72;;
72194;SDS011;60095;50.180;9.032;2023-04-25T06:43:49;10.38;;;6.28;;
72194;SDS011;60095;50.180;9.032;2023-04-25T06:46:16;6.60;;;5.30;;
72194;SDS011;60095;50.180;9.032;2023-04-25T06:48:44;12.27;;;4.10;;
72194;SDS011;60095;50.180;9.032;2023-04-25T06:51:11;5.25;;;4.63;;
72194;SDS011;60095;50.180;9.032;2023-04-25T06:53:38;7.10;;;4.45;;
72194;SDS011;60095;50.180;9.032;2023-04-25T06:56:05;9.93;;;4.45;;
72194;SDS011;60095;50.180;9.032;2023-04-25T06:58:31;19.45;;;6.07;;
72194;SDS011;60095;50.180;9.032;2023-04-25T07:00:58;6.20;;;4.57;;
72194;SDS011;60095;50.180;9.032;2023-04-25T07:03:24;5.63;;;3.83;;
72194;SDS011;60095;50.180;9.032;2023-04-25T07:05:52;7.40;;;3.80;;
72194;SDS011;60095;50.180;9.032;2023-04-25T07:08:20;4.03;;;2.80;;
72194;SDS011;60095;50.180;9.032;2023-04-25T07:10:46;3.88;;;2.90;;
72194;SDS011;60095;50.180;9.032;2023-04-25T07:13:13;2.65;;;2.38;;
72194;SDS011;60095;50.180;9.032;2023-04-25T07:15:39;5.78;;;2.78;;
72194;SDS011;60095;50.180;9.032;2023-04-25T07:18:07;2.50;;;2.13;;
72194;SDS011;60095;50.180;9.032;2023-04-25T07:20:33;4.90;;;2.97;;
72194;SDS011;60095;50.180;9.032;2023-04-25T07:23:01;4.32;;;2.92;;
72194;SDS011;60095;50.180;9.032;2023-04-25T07:25:28;4.07;;;2.13;;
72194;SDS011;60095;50.180;9.032;2023-04-25T07:27:55;7.97;;;2.90;;
72194;SDS011;60095;50.180;9.032;2023-04-25T07:30:22;4.20;;;1.60;;
72194;SDS011;60095;50.180;9.032;2023-04-25T07:32:48;4.03;;;2.30;;
72194;SDS011;60095;50.180;9.032;2023-04-25T07:35:15;3.40;;;2.15;;
72194;SDS011;60095;50.180;9.032;2023-04-25T07:37:42;4.95;;;2.38;;
72194;SDS011;60095;50.180;9.032;2023-04-25T07:40:12;5.78;;;3.35;;
72194;SDS011;60095;50.180;9.032;2023-04-25T07:42:40;2.55;;;1.75;;
72194;SDS011;60095;50.180;9.032;2023-04-25T07:45:07;4.13;;;2.90;;
72194;SDS011;60095;50.180;9.032;2023-04-25T07:47:34;3.95;;;2.05;;
72194;SDS011;60095;50.180;9.032;2023-04-25T07:50:01;2.33;;;1.65;;
72194;SDS011;60095;50.180;9.032;2023-04-25T07:52:27;5.82;;;4.00;;
72194;SDS011;60095;50.180;9.032;2023-04-25T07:54:54;10.18;;;2.70;;
72194;SDS011;60095;50.180;9.032;2023-04-25T07:57:23;5.82;;;2.65;;
72194;SDS011;60095;50.180;9.032;2023-04-25T07:59:49;6.80;;;3.20;;
72194;SDS011;60095;50.180;9.032;2023-04-25T08:02:17;2.78;;;2.17;;
72194;SDS011;60095;50.180;9.032;2023-04-25T08:04:43;5.22;;;2.65;;
72194;SDS011;60095;50.180;9.032;2023-04-25T08:07:10;2.45;;;1.60;;
72194;SDS011;60095;50.180;9.032;2023-04-25T08:09:37;4.90;;;2.78;;
72194;SDS011;60095;50.180;9.032;2023-04-25T08:12:04;4.78;;;2.35;;
72194;SDS011;60095;50.180;9.032;2023-04-25T08:14:32;2.75;;;2.05;;
72194;SDS011;60095;50.180;9.032;2023-04-25T08:17:01;4.95;;;2.78;;
72194;SDS011;60095;50.180;9.032;2023-04-25T08:19:29;1.65;;;1.55;;
72194;SDS011;60095;50.180;9.032;2023-04-25T08:21:56;2.03;;;1.48;;
72194;SDS011;60095;50.180;9.032;2023-04-25T08:24:23;7.25;;;1.75;;
72194;SDS011;60095;50.180;9.032;2023-04-25T08:26:49;7.53;;;1.48;;
72194;SDS011;60095;50.180;9.032;2023-04-25T08:29:15;2.75;;;2.05;;
72194;SDS011;60095;50.180;9.032;2023-04-25T08:31:43;2.50;;;1.83;;
72194;SDS011;60095;50.180;9.032;2023-04-25T08:34:10;2.20;;;1.42;;
72194;SDS011;60095;50.180;9.032;2023-04-25T08:36:37;2.35;;;2.08;;
72194;SDS011;60095;50.180;9.032;2023-04-25T08:39:04;6.15;;;1.85;;
72194;SDS011;60095;50.180;9.032;2023-04-25T08:41:30;3.78;;;2.10;;
72194;SDS011;60095;50.180;9.032;2023-04-25T08:43:57;13.18;;;2.05;;
72194;SDS011;60095;50.180;9.032;2023-04-25T08:46:25;2.13;;;1.77;;
72194;SDS011;60095;50.180;9.032;2023-04-25T08:48:53;4.50;;;2.47;;
72194;SDS011;60095;50.180;9.032;2023-04-25T08:51:23;2.55;;;1.55;;
72194;SDS011;60095;50.180;9.032;2023-04-25T08:53:51;3.80;;;2.40;;
72194;SDS011;60095;50.180;9.032;2023-04-25T08:56:18;3.35;;;2.22;;
72194;SDS011;60095;50.180;9.032;2023-04-25T08:58:47;9.50;;;3.15;;
72194;SDS011;60095;50.180;9.032;2023-04-25T09:01:14;5.47;;;2.83;;
72194;SDS011;60095;50.180;9.032;2023-04-25T09:03:40;6.25;;;2.90;;
72194;SDS011;60095;50.180;9.032;2023-04-25T09:06:09;9.13;;;2.42;;
72194;SDS011;60095;50.180;9.032;2023-04-25T09:08:36;7.47;;;2.75;;
72194;SDS011;60095;50.180;9.032;2023-04-25T09:11:05;4.10;;;1.38;;
72194;SDS011;60095;50.180;9.032;2023-04-25T09:13:31;2.58;;;2.15;;
72194;SDS011;60095;50.180;9.032;2023-04-25T09:15:58;3.00;;;2.08;;
72194;SDS011;60095;50.180;9.032;2023-04-25T09:18:25;1.85;;;1.25;;
72194;SDS011;60095;50.180;9.032;2023-04-25T09:20:52;2.97;;;1.55;;
72194;SDS011;60095;50.180;9.032;2023-04-25T09:23:20;4.05;;;2.47;;
72194;SDS011;60095;50.180;9.032;2023-04-25T09:25:47;5.85;;;1.83;;
72194;SDS011;60095;50.180;9.032;2023-04-25T09:28:14;3.65;;;1.70;;
72194;SDS011;60095;50.180;9.032;2023-04-25T09:30:41;4.22;;;2.13;;
72194;SDS011;60095;50.180;9.032;2023-04-25T09:33:08;2.45;;;2.25;;
72194;SDS011;60095;50.180;9.032;2023-04-25T09:35:35;3.15;;;2.70;;
72194;SDS011;60095;50.180;9.032;2023-04-25T09:38:06;2.53;;;2.03;;
72194;SDS011;60095;50.180;9.032;2023-04-25T09:40:34;3.75;;;3.45;;
72194;SDS011;60095;50.180;9.032;2023-04-25T09:43:08;3.50;;;2.17;;
72194;SDS011;60095;50.180;9.032;2023-04-25T09:45:40;2.20;;;1.88;;
72194;SDS011;60095;50.180;9.032;2023-04-25T09:48:07;5.35;;;2.65;;
72194;SDS011;60095;50.180;9.032;2023-04-25T09:50:33;5.78;;;2.38;;
72194;SDS011;60095;50.180;9.032;2023-04-25T09:53:03;6.55;;;1.85;;
72194;SDS011;60095;50.180;9.032;2023-04-25T09:55:31;3.28;;;1.80;;
72194;SDS011;60095;50.180;9.032;2023-04-25T09:58:00;4.43;;;2.33;;
72194;SDS011;60095;50.180;9.032;2023-04-25T10:00:30;3.92;;;2.05;;
72194;SDS011;60095;50.180;9.032;2023-04-25T10:02:57;2.17;;;1.63;;
72194;SDS011;60095;50.180;9.032;2023-04-25T10:05:23;1.75;;;0.85;;
72194;SDS011;60095;50.180;9.032;2023-04-25T10:07:50;3.40;;;2.70;;
72194;SDS011;60095;50.180;9.032;2023-04-25T10:10:18;2.65;;;1.77;;
72194;SDS011;60095;50.180;9.032;2023-04-25T10:12:50;2.30;;;1.20;;
72194;SDS011;60095;50.180;9.032;2023-04-25T10:15:19;5.55;;;2.85;;
72194;SDS011;60095;50.180;9.032;2023-04-25T10:17:45;9.30;;;2.42;;
72194;SDS011;60095;50.180;9.032;2023-04-25T10:20:12;5.30;;;1.42;;
72194;SDS011;60095;50.180;9.032;2023-04-25T10:22:39;7.40;;;2.42;;
72194;SDS011;60095;50.180;9.032;2023-04-25T10:25:07;2.85;;;1.80;;
72194;SDS011;60095;50.180;9.032;2023-04-25T10:27:34;4.93;;;4.00;;
72194;SDS011;60095;50.180;9.032;2023-04-25T10:30:02;3.40;;;2.90;;
72194;SDS011;60095;50.180;9.032;2023-04-25T10:32:31;5.97;;;1.90;;
72194;SDS011;60095;50.180;9.032;2023-04-25T10:35:04;8.82;;;2.25;;
72194;SDS011;60095;50.180;9.032;2023-04-25T10:37:36;4.50;;;2.28;;
72194;SDS011;60095;50.180;9.032;2023-04-25T10:40:07;2.42;;;2.08;;
72194;SDS011;60095;50.180;9.032;2023-04-25T10:42:34;3.72;;;2.58;;
72194;SDS011;60095;50.180;9.032;2023-04-25T10:45:01;15.50;;;3.05;;
72194;SDS011;60095;50.180;9.032;2023-04-25T10:47:35;3.88;;;1.85;;
72194;SDS011;60095;50.180;9.032;2023-04-25T10:50:04;3.87;;;2.40;;
72194;SDS011;60095;50.180;9.032;2023-04-25T10:52:32;4.00;;;1.92;;
72194;SDS011;60095;50.180;9.032;2023-04-25T10:54:59;4.05;;;2.30;;
72194;SDS011;60095;50.180;9.032;2023-04-25T10:57:32;2.95;;;1.98;;
72194;SDS011;60095;50.180;9.032;2023-04-25T11:00:00;2.15;;;1.80;;
72194;SDS011;60095;50.180;9.032;2023-04-25T11:02:30;1.15;;;1.05;;
72194;SDS011;60095;50.180;9.032;2023-04-25T11:04:58;3.70;;;1.13;;
72194;SDS011;60095;50.180;9.032;2023-04-25T11:07:26;2.38;;;1.17;;
72194;SDS011;60095;50.180;9.032;2023-04-25T11:09:55;0.60;;;0.55;;
72194;SDS011;60095;50.180;9.032;2023-04-25T11:12:22;3.05;;;1.90;;
72194;SDS011;60095;50.180;9.032;2023-04-25T11:14:57;2.83;;;1.58;;
72194;SDS011;60095;50.180;9.032;2023-04-25T11:17:24;5.22;;;2.17;;
72194;SDS011;60095;50.180;9.032;2023-04-25T11:19:51;2.42;;;2.00;;
72194;SDS011;60095;50.180;9.032;2023-04-25T11:22:19;11.88;;;1.70;;
72194;SDS011;60095;50.180;9.032;2023-04-25T11:24:47;2.53;;;1.42;;
72194;SDS011;60095;50.180;9.032;2023-04-25T11:27:14;3.40;;;1.95;;
72194;SDS011;60095;50.180;9.032;2023-04-25T11:29:40;1.20;;;1.00;;
72194;SDS011;60095;50.180;9.032;2023-04-25T11:32:07;4.43;;;1.45;;
72194;SDS011;60095;50.180;9.032;2023-04-25T11:34:34;1.63;;;1.40;;
72194;SDS011;60095;50.180;9.032;2023-04-25T11:37:01;3.05;;;0.93;;
72194;SDS011;60095;50.180;9.032;2023-04-25T11:39:29;6.35;;;2.35;;
72194;SDS011;60095;50.180;9.032;2023-04-25T11:41:56;2.90;;;1.42;;
72194;SDS011;60095;50.180;9.032;2023-04-25T11:44:22;1.90;;;1.05;;
72194;SDS011;60095;50.180;9.032;2023-04-25T11:46:49;1.08;;;0.55;;
72194;SDS011;60095;50.180;9.032;2023-04-25T11:49:16;1.95;;;1.00;;
72194;SDS011;60095;50.180;9.032;2023-04-25T11:51:44;1.80;;;1.15;;
72194;SDS011;60095;50.180;9.032;2023-04-25T11:54:10;1.20;;;1.08;;
72194;SDS011;60095;50.180;9.032;2023-04-25T11:56:39;1.73;;;0.95;;
72194;SDS011;60095;50.180;9.032;2023-04-25T11:59:06;2.53;;;1.40;;
72194;SDS011;60095;50.180;9.032;2023-04-25T12:01:33;1.98;;;1.05;;
72194;SDS011;60095;50.180;9.032;2023-04-25T12:04:10;2.10;;;1.45;;
72194;SDS011;60095;50.180;9.032;2023-04-25T12:06:37;1.83;;;1.33;;
72194;SDS011;60095;50.180;9.032;2023-04-25T12:09:06;3.55;;;1.13;;
72194;SDS011;60095;50.180;9.032;2023-04-25T12:11:41;7.53;;;1.45;;
72194;SDS011;60095;50.180;9.032;2023-04-25T12:14:08;3.25;;;1.55;;
72194;SDS011;60095;50.180;9.032;2023-04-25T12:16:42;6.65;;;2.13;;
72194;SDS011;60095;50.180;9.032;2023-04-25T12:19:08;2.00;;;1.67;;
72194;SDS011;60095;50.180;9.032;2023-04-25T12:21:35;2.33;;;0.85;;
72194;SDS011;60095;50.180;9.032;2023-04-25T12:24:11;4.55;;;0.95;;
72194;SDS011;60095;50.180;9.032;2023-04-25T12:26:47;2.53;;;1.70;;
72194;SDS011;60095;50.180;9.032;2023-04-25T12:29:17;2.22;;;1.00;;
72194;SDS011;60095;50.180;9.032;2023-04-25T12:31:44;4.20;;;1.52;;
72194;SDS011;60095;50.180;9.032;2023-04-25T12:34:11;3.72;;;1.35;;
72194;SDS011;60095;50.180;9.032;2023-04-25T12:36:38;3.78;;;1.00;;
72194;SDS011;60095;50.180;9.032;2023-04-25T12:39:04;3.42;;;1.65;;
72194;SDS011;60095;50.180;9.032;2023-04-25T12:41:32;5.50;;;1.35;;
72194;SDS011;60095;50.180;9.032;2023-04-25T12:44:00;2.38;;;1.10;;
72194;SDS011;60095;50.180;9.032;2023-04-25T12:46:26;1.95;;;1.65;;
72194;SDS011;60095;50.180;9.032;2023-04-25T12:48:53;4.05;;;3.38;;
72194;SDS011;60095;50.180;9.032;2023-04-25T12:51:20;12.25;;;2.30;;
72194;SDS011;60095;50.180;9.032;2023-04-25T12:53:49;3.28;;;1.73;;
72194;SDS011;60095;50.180;9.032;2023-04-25T12:56:16;2.72;;;1.27;;
72194;SDS011;60095;50.180;9.032;2023-04-25T12:58:42;5.35;;;2.40;;
72194;SDS011;60095;50.180;9.032;2023-04-25T13:01:11;10.27;;;1.83;;
72194;SDS011;60095;50.180;9.032;2023-04-25T13:03:38;2.50;;;1.58;;
72194;SDS011;60095;50.180;9.032;2023-04-25T13:06:05;9.85;;;1.95;;
72194;SDS011;60095;50.180;9.032;2023-04-25T13:08:32;4.22;;;1.88;;
72194;SDS011;60095;50.180;9.032;2023-04-25T13:10:59;3.10;;;1.63;;
72194;SDS011;60095;50.180;9.032;2023-04-25T13:13:26;3.05;;;1.58;;
72194;SDS011;60095;50.180;9.032;2023-04-25T13:15:53;2.17;;;1.25;;
72194;SDS011;60095;50.180;9.032;2023-04-25T13:18:22;2.28;;;1.40;;
72194;SDS011;60095;50.180;9.032;2023-04-25T13:20:51;1.95;;;1.10;;
72194;SDS011;60095;50.180;9.032;2023-04-25T13:23:17;2.17;;;1.27;;
72194;SDS011;60095;50.180;9.032;2023-04-25T13:25:44;3.88;;;1.75;;
72194;SDS011;60095;50.180;9.032;2023-04-25T13:28:10;0.80;;;0.80;;
72194;SDS011;60095;50.180;9.032;2023-04-25T13:30:36;14.85;;;2.45;;
72194;SDS011;60095;50.180;9.032;2023-04-25T13:33:03;2.25;;;1.83;;
72194;SDS011;60095;50.180;9.032;2023-04-25T13:35:33;2.50;;;1.92;;
72194;SDS011;60095;50.180;9.032;2023-04-25T13:38:00;4.03;;;2.45;;
72194;SDS011;60095;50.180;9.032;2023-04-25T13:40:26;4.97;;;2.20;;
72194;SDS011;60095;50.180;9.032;2023-04-25T13:42:53;3.03;;;2.42;;
72194;SDS011;60095;50.180;9.032;2023-04-25T13:45:20;8.35;;;2.55;;
72194;SDS011;60095;50.180;9.032;2023-04-25T13:47:47;3.17;;;1.55;;
72194;SDS011;60095;50.180;9.032;2023-04-25T13:50:13;3.08;;;1.63;;
72194;SDS011;60095;50.180;9.032;2023-04-25T13:52:42;5.15;;;2.22;;
72194;SDS011;60095;50.180;9.032;2023-04-25T13:55:10;2.30;;;1.58;;
72194;SDS011;60095;50.180;9.032;2023-04-25T13:57:36;2.28;;;1.25;;
72194;SDS011;60095;50.180;9.032;2023-04-25T14:00:03;4.25;;;2.25;;
72194;SDS011;60095;50.180;9.032;2023-04-25T14:02:33;3.83;;;1.58;;
72194;SDS011;60095;50.180;9.032;2023-04-25T14:05:00;2.45;;;1.33;;
72194;SDS011;60095;50.180;9.032;2023-04-25T14:07:26;1.92;;;1.35;;
72194;SDS011;60095;50.180;9.032;2023-04-25T14:09:54;10.32;;;1.60;;
72194;SDS011;60095;50.180;9.032;2023-04-25T14:12:22;6.03;;;1.85;;
72194;SDS011;60095;50.180;9.032;2023-04-25T14:14:48;2.33;;;1.42;;
72194;SDS011;60095;50.180;9.032;2023-04-25T14:17:15;2.33;;;2.10;;
72194;SDS011;60095;50.180;9.032;2023-04-25T14:19:41;2.88;;;1.77;;
72194;SDS011;60095;50.180;9.032;2023-04-25T14:22:10;2.92;;;1.83;;
72194;SDS011;60095;50.180;9.032;2023-04-25T14:24:37;10.63;;;1.88;;
72194;SDS011;60095;50.180;9.032;2023-04-25T14:27:05;1.77;;;1.65;;
72194;SDS011;60095;50.180;9.032;2023-04-25T14:29:32;1.77;;;1.63;;
72194;SDS011;60095;50.180;9.032;2023-04-25T14:31:58;5.85;;;3.13;;
72194;SDS011;60095;50.180;9.032;2023-04-25T14:34:25;1.80;;;1.27;;
72194;SDS011;60095;50.180;9.032;2023-04-25T14:36:52;8.88;;;1.88;;
72194;SDS011;60095;50.180;9.032;2023-04-25T14:39:18;6.50;;;3.75;;
72194;SDS011;60095;50.180;9.032;2023-04-25T14:41:45;6.28;;;1.52;;
72194;SDS011;60095;50.180;9.032;2023-04-25T14:44:13;2.20;;;1.80;;
72194;SDS011;60095;50.180;9.032;2023-04-25T14:46:40;6.93;;;2.42;;